Latest Coastal Weather Observations for Wynyard

IDT60701

Issued at 2:55 pm EST Thursday 28 August 2014 (issued every 10 minutes, with the page automatically refreshed every 10 minutes)

About coastal observations | Map of coastal stations | Coastal observations for TAS | Marine services | Other Formats
Station Details ID: 091107 Name: WYNYARD AIRPORT Lat: -41.00 Lon: 145.73 Height: 12.0 m
Data from the previous 72 hours. | See also: Recent months at Wynyard
Date/Time
EST
Temp

°C
Wind Pressure Rain
since 9am
mm
Weather Cloud Vis
km
Sea
Height
m
Swell
Dir
 
Speed
knots
Gust
knots
hPa Trend Height
m
Period
s
Dir
28/02:30pm 13.9 E 7 10 1028.0 - 0.0 - Partly cloudy 10 - - - -
28/02:00pm 14.3 E 8 11 1028.1 - 0.0 - Partly cloudy 10 - - - -
28/01:30pm 14.5 E 7 9 1028.4 - 0.0 - - 10 - - - -
28/01:17pm 14.0 E 7 12 1028.5 - 0.0 - Partly cloudy 10 - - - -
28/01:00pm 14.4 E 8 11 1028.7 - 0.0 - Partly cloudy 10 - - - -
28/12:49pm 14.0 E 7 11 1028.8 - 0.0 - Partly cloudy 10 - - - -
28/12:30pm 15.0 ENE 8 11 1029.0 - 0.0 - Partly cloudy 10 - - - -
28/12:26pm 14.3 ENE 8 11 1029.0 - 0.0 - Partly cloudy 10 - - - -
28/12:00pm 14.3 E 7 11 1029.3 - 0.0 - Cloudy 10 - - - -
28/11:30am 13.8 E 7 12 1029.7 - 0.0 - Partly cloudy 10 - - - -
28/11:10am 13.4 E 7 11 1029.7 - 0.0 - Partly cloudy 10 - - - -
28/11:00am 13.0 E 7 11 1029.8 - 0.0 - Partly cloudy 10 - - - -
28/10:43am 13.0 E 6 10 1029.8 - 0.0 - Partly cloudy 10 - - - -
28/10:30am 13.7 ENE 8 11 1029.8 - 0.0 - Partly cloudy 10 - - - -
28/10:00am 13.0 E 8 12 1029.9 - 0.0 - Partly cloudy 10 - - - -
28/09:30am 12.8 E 7 12 1030.0 - 0.0 - Partly cloudy 10 - - - -
28/09:00am 12.1 E 9 12 1029.8 - 0.0 - Cloudy 10 - - - -
28/08:30am 11.9 E 9 13 1029.8 - 0.0 - Partly cloudy 10 - - - -
28/08:03am 11.7 ESE 9 12 1029.6 - 0.0 - Partly cloudy 10 - - - -
28/08:00am 11.7 E 9 12 1029.6 - 0.0 - Partly cloudy 10 - - - -
28/07:34am 11.6 E 9 13 1029.4 - 0.0 - Partly cloudy 10 - - - -
28/07:30am 11.6 E 10 13 1029.3 - 0.0 - Partly cloudy 10 - - - -
28/07:00am 11.5 E 8 12 1029.2 - 0.0 - Partly cloudy 10 - - - -
28/06:59am 11.5 E 8 12 1029.2 - 0.0 - Partly cloudy 10 - - - -
28/06:30am 11.4 E 8 11 1029.0 - 0.0 - Partly cloudy 10 - - - -
28/06:00am 11.4 E 7 10 1029.0 - 0.0 - Cloudy 10 - - - -
28/05:30am 11.5 E 7 11 1028.7 - 0.0 - Partly cloudy 10 - - - -
28/05:00am 11.5 E 8 11 1028.8 - 0.0 - Partly cloudy 10 - - - -
28/04:52am 11.6 E 8 12 1028.7 - 0.0 - Partly cloudy 10 - - - -
28/04:30am 11.7 E 8 10 1028.8 - 0.0 - Partly cloudy 10 - - - -
28/04:00am 11.9 E 6 9 1028.8 - 0.0 - Partly cloudy 10 - - - -
28/03:45am 12.0 E 7 11 1028.7 - 0.0 - Partly cloudy 10 - - - -
28/03:30am 12.0 E 8 10 1028.7 - 0.0 - Partly cloudy 10 - - - -
28/03:03am 11.8 E 7 11 1028.8 - 0.0 - Partly cloudy 10 - - - -
28/03:00am 11.8 E 7 11 1028.8 - 0.0 - Cloudy 10 - - - -
28/02:57am 11.8 E 7 10 1028.8 - 0.0 - Partly cloudy 10 - - - -
28/02:30am 11.6 E 7 9 1028.8 - 0.0 - Partly cloudy 10 - - - -
28/02:00am 11.2 ESE 5 11 1029.0 - 0.0 - Partly cloudy 10 - - - -
28/01:37am 10.2 SSE 3 5 1029.4 - 0.0 - Partly cloudy 10 - - - -
28/01:30am 10.2 ESE 3 4 1029.3 - 0.0 - Partly cloudy 10 - - - -
28/01:00am 10.4 SE 6 7 1029.6 - 0.0 - Partly cloudy 10 - - - -
28/12:30am 9.4 E 4 5 1029.4 - 0.0 - Partly cloudy 10 - - - -
28/12:00am 8.2 S 1 3 1029.6 - 0.0 - Mostly cloudy 10 - - - -
 
Date/Time
EST
Temp

°C
Wind Pressure Rain
since 9am
mm
Weather Cloud Vis
km
Sea
Height
m
Swell
Dir
 
Speed
knots
Gust
knots
hPa Trend Height
m
Period
s
Dir
27/11:30pm 7.7 CALM 0 4 1029.8 - 0.0 - - 6 - - - -
27/11:00pm 7.1 SW 3 5 1029.8 - 0.0 - - 10 - - - -
27/10:30pm 8.2 S 3 5 1029.7 - 0.0 - - 10 - - - -
27/10:00pm 8.3 S 4 5 1029.6 - 0.0 - - 10 - - - -
27/09:30pm 9.4 S 6 6 1029.6 - 0.0 - Partly cloudy 10 - - - -
27/09:00pm 9.1 SSE 6 7 1029.4 - 0.0 - Mostly clear 10 - - - -
27/08:30pm 9.1 SE 4 5 1029.4 - 0.0 - - 10 - - - -
27/08:00pm 10.7 SE 6 7 1029.4 - 0.0 - - 10 - - - -
27/07:30pm 11.1 ESE 7 9 1029.1 - 0.0 - - 10 - - - -
27/07:00pm 11.7 ESE 9 11 1029.1 - 0.0 - Partly cloudy 10 - - - -
27/06:56pm 11.8 ESE 9 12 1029.1 - 0.0 - Partly cloudy 10 - - - -
27/06:37pm 11.8 ESE 8 10 1029.0 - 0.0 - Partly cloudy 10 - - - -
27/06:30pm 11.8 E 8 11 1028.9 - 0.0 - Partly cloudy 10 - - - -
27/06:00pm 12.0 E 9 12 1028.7 - 0.0 - Mostly clear 10 - - - -
27/05:30pm 12.4 ESE 10 13 1028.7 - 0.0 - - 10 - - - -
27/05:00pm 13.0 E 10 13 1028.6 - 0.0 - - 10 - - - -
27/04:30pm 13.6 E 9 12 1028.7 - 0.0 - - 10 - - - -
27/04:00pm 13.8 E 8 11 1028.5 - 0.0 - - 10 - - - -
27/03:30pm 13.9 E 9 13 1028.5 - 0.0 - Partly cloudy 10 - - - -
27/03:00pm 14.3 E 9 13 1028.4 - 0.0 - - 10 - - - -
27/02:30pm 14.3 E 10 14 1028.6 - 0.0 - - 10 - - - -
27/02:00pm 14.3 E 10 14 1028.4 - 0.0 - - 10 - - - -
27/01:30pm 14.6 E 9 13 1028.6 - 0.0 - - 10 - - - -
27/01:00pm 15.1 E 9 14 1028.6 - 0.0 - - 10 - - - -
27/12:30pm 14.6 E 10 15 1028.9 - 0.0 - - 10 - - - -
27/12:00pm 14.9 E 10 16 1029.3 - 0.0 - - 10 - - - -
27/11:30am 14.3 ESE 11 15 1029.9 - 0.0 - - 10 - - - -
27/11:00am 14.2 E 12 16 1029.6 - 0.0 - - 10 - - - -
27/10:30am 14.4 E 11 15 1029.8 - 0.0 - - 10 - - - -
27/10:00am 14.1 E 10 13 1029.7 - 0.0 - - 10 - - - -
27/09:30am 13.8 E 11 16 1029.8 - 0.0 - - 10 - - - -
27/09:00am 13.3 E 11 15 1029.7 - 0.2 - - 10 - - - -
27/08:30am 12.8 E 11 15 1029.5 - 0.2 - - 10 - - - -
27/08:00am 12.0 ESE 10 13 1029.3 - 0.2 - - 10 - - - -
27/07:30am 11.2 ESE 9 11 1029.1 - 0.2 - - 10 - - - -
27/07:00am 10.4 ESE 8 10 1029.0 - 0.2 - - 10 - - - -
27/06:30am 10.6 ESE 8 9 1028.7 - 0.2 - Partly cloudy 10 - - - -
27/06:27am 10.4 ESE 8 9 1028.7 - 0.2 - Partly cloudy 10 - - - -
27/06:00am 10.5 ESE 8 9 1028.6 - 0.2 Recent precip. Partly cloudy 10 - - - -
27/05:58am 10.6 ESE 8 9 1028.6 - 0.2 - Partly cloudy 10 - - - -
27/05:30am 10.5 ESE 8 11 1028.5 - 0.0 - Partly cloudy 10 - - - -
27/05:00am 10.6 SE 7 9 1028.6 - 0.0 - Partly cloudy 10 - - - -
27/04:30am 10.0 ESE 6 7 1028.6 - 0.0 - Partly cloudy 10 - - - -
27/04:00am 9.0 SSE 4 6 1028.6 - 0.0 - - 10 - - - -
27/03:48am 9.2 SSE 4 6 1028.6 - 0.0 - Partly cloudy 9 - - - -
27/03:30am 7.9 SSE 3 4 1028.7 - 0.0 - Partly cloudy 10 - - - -
27/03:16am 8.8 S 4 5 1028.7 - 0.0 - Partly cloudy 10 - - - -
27/03:05am 7.9 S 3 5 1028.7 - 0.0 - Partly cloudy 7 - - - -
27/03:00am 8.4 SSE 2 5 1028.7 - 0.0 - Mostly clear 7 - - - -
27/02:30am 8.8 SSE 4 5 1028.9 - 0.0 - Partly cloudy 10 - - - -
27/02:00am 9.9 S 5 6 1029.0 - 0.0 - Partly cloudy 10 - - - -
27/01:59am 9.7 S 5 6 1029.0 - 0.0 - Partly cloudy 10 - - - -
27/01:30am 8.9 S 4 5 1029.1 - 0.0 - - 10 - - - -
27/01:00am 9.7 SSE 6 7 1029.3 - 0.0 - - 10 - - - -
27/12:30am 11.5 ESE 8 10 1029.2 - 0.0 - - 10 - - - -
27/12:03am 11.7 ESE 9 12 1029.4 - 0.0 - Partly cloudy 10 - - - -
27/12:00am 11.6 ESE 9 12 1029.4 - 0.0 - Mostly clear 10 - - - -
 
Date/Time
EST
Temp

°C
Wind Pressure Rain
since 9am
mm
Weather Cloud Vis
km
Sea
Height
m
Swell
Dir
 
Speed
knots
Gust
knots
hPa Trend Height
m
Period
s
Dir
26/11:47pm 11.8 ESE 9 12 1029.6 - 0.0 - Partly cloudy 10 - - - -
26/11:30pm 11.8 ESE 9 12 1029.6 - 0.0 - - 10 - - - -
26/11:00pm 11.7 ESE 9 11 1029.5 - 0.0 - Partly cloudy 10 - - - -
26/10:30pm 11.9 E 7 10 1029.5 - 0.0 - Partly cloudy 10 - - - -
26/10:00pm 11.6 ESE 6 8 1029.7 - 0.0 - Cloudy 10 - - - -
26/09:30pm 10.9 SE 5 8 1029.8 - 0.0 - Partly cloudy 10 - - - -
26/09:00pm 10.7 SE 6 7 1029.9 - 0.0 - - 10 - - - -
26/08:30pm 10.9 ESE 6 7 1029.9 - 0.0 - Partly cloudy 10 - - - -
26/08:00pm 11.2 SE 5 5 1029.7 - 0.0 - Cloudy 10 - - - -
26/07:30pm 9.6 S 1 4 1029.6 - 0.0 - Partly cloudy 9 - - - -
26/07:20pm 10.4 CALM 0 0 1029.5 - 0.0 - - 10 - - - -
26/07:00pm 10.0 CALM 0 0 1029.4 - 0.0 - - 4 - - - -
26/06:30pm 11.5 SSW 1 3 1029.3 - 0.0 - - 10 - - - -
26/06:00pm 11.6 ESE 2 6 1029.1 - 0.0 - - 10 - - - -
26/05:30pm 12.6 ESE 5 7 1029.0 - 0.0 - Partly cloudy 10 - - - -
26/05:00pm 13.5 E 6 7 1028.8 - 0.0 - Cloudy 10 - - - -
26/04:35pm 13.6 E 6 8 1028.9 - 0.0 - Partly cloudy 10 - - - -
26/04:30pm 13.7 E 6 8 1029.0 - 0.0 - Partly cloudy 10 - - - -
26/04:00pm 13.9 E 7 9 1029.0 - 0.0 - Cloudy 10 - - - -
26/03:30pm 13.8 E 6 9 1029.3 - 0.0 - Cloudy 10 - - - -
26/03:00pm 14.2 E 6 9 1029.3 - 0.0 - Cloudy 10 - - - -
26/02:30pm 14.1 E 6 8 1029.5 - 0.0 - Cloudy 10 - - - -
26/02:00pm 14.0 ENE 7 10 1029.7 - 0.0 - Partly cloudy 10 - - - -
26/01:47pm 14.0 ENE 8 11 1029.8 - 0.0 - Partly cloudy 10 - - - -
26/01:30pm 14.8 ENE 8 11 1029.9 - 0.0 - Cloudy 10 - - - -
26/01:00pm 14.7 E 9 13 1030.0 - 0.0 - Cloudy 10 - - - -
26/12:30pm 14.9 E 8 12 1030.4 - 0.0 - Partly cloudy 10 - - - -
26/12:10pm 14.4 E 8 13 1030.7 - 0.0 - Partly cloudy 10 - - - -
26/12:00pm 14.8 E 8 11 1030.7 - 0.0 - Cloudy 10 - - - -
26/11:30am 14.0 E 8 11 1031.0 - 0.0 - Cloudy 10 - - - -
26/11:00am 13.9 E 8 11 1031.3 - 0.0 - Cloudy 10 - - - -
26/10:30am 13.9 E 9 13 1031.3 - 0.0 - Cloudy 10 - - - -
26/10:00am 13.9 E 9 13 1031.2 - 0.0 - Cloudy 10 - - - -
26/09:44am 13.9 E 8 11 1031.3 - 0.0 - Cloudy 10 - - - -
26/09:30am 13.8 E 7 12 1031.4 - 0.0 - Cloudy 10 - - - -
26/09:08am 13.4 ESE 7 10 1031.4 - 0.0 - Cloudy 10 - - - -
26/09:00am 13.0 SE 6 8 1031.4 - 0.0 - Cloudy 10 - - - -
26/08:30am 12.3 SE 7 9 1031.3 - 0.0 - Cloudy 10 - - - -
26/08:25am 12.1 SE 7 9 1031.2 - 0.0 - Cloudy 10 - - - -
26/08:00am 11.2 S 2 5 1031.1 - 0.0 - Cloudy 10 - - - -
26/07:30am 9.6 W 2 3 1030.9 - 0.0 - Cloudy 10 - - - -
26/07:28am 9.5 W 2 3 1030.9 - 0.0 - Cloudy 10 - - - -
26/07:25am 9.2 WNW 2 3 1030.9 - 0.0 - Cloudy 10 - - - -
26/07:00am 7.8 WSW 4 5 1030.7 - 0.0 - Cloudy 4 - - - -
26/06:51am 7.7 W 3 5 1030.5 - 0.0 - Cloudy 5 - - - -
26/06:42am 8.1 W 3 4 1030.4 - 0.0 - Cloudy 10 - - - -
26/06:30am 7.9 W 3 4 1030.3 - 0.0 - Cloudy 5 - - - -
26/06:17am 7.6 W 4 5 1030.2 - 0.0 - Cloudy 5 - - - -
26/06:05am 7.4 W 3 4 1030.1 - 0.0 - Partly cloudy 9 - - - -
26/06:00am 7.5 W 3 4 1030.1 - 0.0 - Mostly cloudy 10 - - - -
26/05:45am 7.0 W 4 5 1030.0 - 0.0 - Partly cloudy 5 - - - -
26/05:44am 7.0 W 4 5 1030.0 - 0.0 - Partly cloudy 5 - - - -
26/05:30am 7.1 WNW 4 5 1030.0 - 0.0 - Partly cloudy 10 - - - -
26/05:18am 7.3 WNW 4 5 1030.0 - 0.0 - Partly cloudy 10 - - - -
26/05:00am 8.1 WNW 4 5 1029.9 - 0.0 - Partly cloudy 10 - - - -
26/04:30am 8.7 WNW 4 5 1029.9 - 0.0 - Cloudy 10 - - - -
26/04:00am 8.5 W 5 5 1029.9 - 0.0 - Cloudy 10 - - - -
26/03:30am 8.5 W 4 5 1029.8 - 0.0 - Cloudy 10 - - - -
26/03:00am 8.8 WNW 5 6 1030.0 - 0.0 - Cloudy 10 - - - -
26/02:30am 8.5 WNW 5 5 1030.2 - 0.0 - Cloudy 10 - - - -
26/02:00am 8.3 W 5 5 1030.5 - 0.0 - Partly cloudy 10 - - - -
26/01:30am 8.0 W 5 7 1030.7 - 0.0 - Partly cloudy 10 - - - -
26/01:22am 8.1 W 6 7 1030.7 - 0.0 - Partly cloudy 10 - - - -
26/01:00am 7.9 WNW 5 6 1030.8 - 0.0 - Cloudy 10 - - - -
26/12:30am 6.7 WNW 6 7 1030.7 - 0.0 - Partly cloudy 10 - - - -
26/12:00am 6.7 WNW 6 7 1030.7 - 0.0 - - 8 - - - -
 
Date/Time
EST
Temp

°C
Wind Pressure Rain
since 9am
mm
Weather Cloud Vis
km
Sea
Height
m
Swell
Dir
 
Speed
knots
Gust
knots
hPa Trend Height
m
Period
s
Dir
25/11:43pm 6.8 WNW 5 6 1030.6 - 0.0 - - 10 - - - -
25/11:30pm 6.5 W 5 7 1030.6 - 0.0 - - 5 - - - -
25/11:00pm 6.6 W 5 6 1030.6 - 0.0 - - 5 - - - -
25/10:43pm 7.6 WNW 4 5 1030.5 - 0.0 - - 9 - - - -
25/10:30pm 7.2 W 5 5 1030.7 - 0.0 - - 4 - - - -
25/10:11pm 7.0 W 5 6 1030.7 - 0.0 - - 5 - - - -
25/10:04pm 7.7 WNW 4 5 1030.7 - 0.0 - - 7 - - - -
25/10:00pm 7.9 WNW 5 5 1030.7 - 0.0 - - 7 - - - -
25/09:31pm 8.1 W 5 6 1030.7 - 0.0 - - 5 - - - -
25/09:30pm 8.2 W 5 6 1030.7 - 0.0 - - 6 - - - -
25/09:00pm 9.4 W 4 5 1030.6 - 0.0 - Mostly cloudy 10 - - - -
25/08:30pm 9.5 W 4 5 1030.5 - 0.0 - Partly cloudy 10 - - - -
25/08:00pm 9.7 SW 4 5 1030.2 - 0.0 - Partly cloudy 10 - - - -
25/07:30pm 10.0 S 3 5 1030.0 - 0.0 - Partly cloudy 10 - - - -
25/07:00pm 11.1 SSW 2 5 1029.8 - 0.0 - Partly cloudy 10 - - - -
25/06:30pm 12.5 CALM 0 0 1029.7 - 0.0 - Partly cloudy 10 - - - -
25/06:00pm 13.6 CALM 0 0 1029.6 - 0.0 - Mostly cloudy 10 - - - -
25/05:30pm 14.6 CALM 0 3 1029.2 - 0.0 - Partly cloudy 10 - - - -
25/05:00pm 15.0 NNE 3 4 1029.1 - 0.0 - Partly cloudy 10 - - - -
25/04:30pm 15.3 N 2 5 1029.0 - 0.0 - Partly cloudy 10 - - - -
25/04:00pm 15.3 NNE 3 5 1028.7 - 0.0 - - 10 - - - -
25/03:30pm 15.2 NNE 5 8 1028.5 - 0.0 - - 10 - - - -
25/03:00pm 15.1 NNE 5 8 1028.5 - 0.0 - - 10 - - - -

Other Formats:

Comma delimited format used in spreadsheet applications
http://www.bom.gov.au/fwo/IDT60701/IDT60701.95957.axf

JavaScript Object Notation format (JSON) in row-major order
http://www.bom.gov.au/fwo/IDT60701/IDT60701.95957.json